Time;durP1;ratioP1;P1;durP2;ratioP2;P2;SDS_P1;SDS_P2;PMS_P1;PMS_P2;Temp;Humidity;BMP_temperature;BMP_pressure;BME280_temperature;BME280_humidity;BME280_pressure;Samples;Min_cycle;Max_cycle;Signal;HPM_P1;HPM_P2
2021/06/06 00:00:43;;;;;;;13.95;6.28;;;;;;;13.47;100.00;99794.83;1642588;87;20997;-72
2021/06/06 00:03:15;;;;;;;13.58;5.90;;;;;;;13.48;100.00;99791.05;1642480;87;21025;-72
2021/06/06 00:05:51;;;;;;;14.03;5.28;;;;;;;13.46;100.00;99790.41;1642648;87;21117;-71
2021/06/06 00:08:18;;;;;;;11.43;5.20;;;;;;;13.47;100.00;99789.89;1647510;87;21077;-72
2021/06/06 00:10:45;;;;;;;15.48;6.03;;;;;;;13.46;100.00;99785.52;1647370;87;21032;-71
2021/06/06 00:13:13;;;;;;;14.03;6.53;;;;;;;13.45;100.00;99787.89;1647362;87;21156;-71
2021/06/06 00:15:43;;;;;;;17.48;6.80;;;;;;;13.45;100.00;99787.89;1646748;87;21012;-73
2021/06/06 00:18:11;;;;;;;16.67;6.85;;;;;;;13.44;100.00;99782.16;1630925;88;21083;-71
2021/06/06 00:20:38;;;;;;;19.45;7.10;;;;;;;13.43;100.00;99777.22;1624753;88;21065;-72
2021/06/06 00:23:05;;;;;;;19.00;6.25;;;;;;;13.44;100.00;99778.08;1624938;88;21038;-72
2021/06/06 00:25:32;;;;;;;13.48;5.97;;;;;;;13.44;100.00;99776.72;1624610;88;21090;-71
2021/06/06 00:27:59;;;;;;;15.45;6.37;;;;;;;13.44;100.00;99780.27;1624827;88;21078;-72
2021/06/06 00:30:26;;;;;;;14.53;5.87;;;;;;;13.45;100.00;99777.03;1624639;88;21520;-72
2021/06/06 00:32:53;;;;;;;14.35;5.70;;;;;;;13.46;100.00;99776.00;1624519;88;21085;-72
2021/06/06 00:35:20;;;;;;;15.60;6.62;;;;;;;13.50;100.00;99778.64;1628119;88;21595;-71
2021/06/06 00:37:47;;;;;;;12.75;6.17;;;;;;;13.54;100.00;99782.63;1630263;88;21022;-72
2021/06/06 00:40:24;;;;;;;17.12;6.17;;;;;;;13.57;100.00;99786.33;1630477;88;21093;-71
2021/06/06 00:42:51;;;;;;;16.93;5.53;;;;;;;13.60;100.00;99782.39;1630629;88;21086;-71
2021/06/06 00:45:24;;;;;;;16.85;5.33;;;;;;;13.63;100.00;99784.69;1630466;88;21539;-72
2021/06/06 00:47:51;;;;;;;14.28;5.92;;;;;;;13.64;100.00;99783.14;1630382;88;21014;-72
2021/06/06 00:50:26;;;;;;;17.17;6.08;;;;;;;13.66;100.00;99780.23;1630452;88;21090;-71
2021/06/06 00:52:54;;;;;;;17.35;6.72;;;;;;;13.67;100.00;99780.56;1630414;88;21086;-71
2021/06/06 00:55:22;;;;;;;19.30;7.28;;;;;;;13.67;100.00;99776.48;1630532;88;21081;-72
2021/06/06 00:57:50;;;;;;;19.62;7.25;;;;;;;13.66;100.00;99781.06;1634356;88;21041;-72
2021/06/06 01:00:24;;;;;;;24.47;7.58;;;;;;;13.67;100.00;99783.28;1636058;88;21077;-72
2021/06/06 01:02:54;;;;;;;16.77;6.90;;;;;;;13.66;100.00;99774.80;1635803;88;21575;-71
2021/06/06 01:05:34;;;;;;;14.63;6.30;;;;;;;13.65;100.00;99770.38;1647677;87;21058;-71
2021/06/06 01:08:05;;;;;;;13.43;5.90;;;;;;;13.65;100.00;99769.02;1593258;86;21121;-72
2021/06/06 01:10:34;;;;;;;15.35;5.55;;;;;;;13.67;100.00;99771.05;1663036;86;21063;-71
2021/06/06 01:13:16;;;;;;;13.28;5.25;;;;;;;13.70;100.00;99765.73;1685752;85;21004;-72
2021/06/06 01:15:57;;;;;;;14.35;5.90;;;;;;;13.70;100.00;99767.09;1663334;86;21592;-71
2021/06/06 01:18:29;;;;;;;11.18;5.60;;;;;;;13.71;100.00;99771.50;1664917;85;21156;-72
2021/06/06 01:21:29;;;;;;;14.23;5.75;;;;;;;13.71;100.00;99766.06;1660454;86;21095;-71
2021/06/06 01:24:28;;;;;;;13.15;5.30;;;;;;;13.70;100.00;99753.50;1656456;86;21096;-70
2021/06/06 01:27:14;;;;;;;14.78;5.58;;;;;;;13.68;100.00;99758.60;1622254;88;21041;-71
2021/06/06 01:30:05;;;;;;;13.40;5.83;;;;;;;13.67;100.00;99758.83;1610754;89;21070;-71
2021/06/06 01:32:46;;;;;;;14.93;6.58;;;;;;;13.65;100.00;99757.66;1611179;89;21077;-71
2021/06/06 01:35:24;;;;;;;17.23;7.50;;;;;;;13.65;100.00;99763.59;1608159;89;21540;-70
2021/06/06 01:38:00;;;;;;;25.35;10.18;;;;;;;13.66;100.00;99759.85;1592001;90;21029;-71
2021/06/06 01:40:29;;;;;;;28.62;12.40;;;;;;;13.65;100.00;99750.87;1591684;90;21065;-71
2021/06/06 01:42:59;;;;;;;27.70;13.53;;;;;;;13.66;100.00;99755.25;1570783;91;21065;-71
2021/06/06 01:45:29;;;;;;;38.83;18.48;;;;;;;13.66;100.00;99751.17;1591903;90;21081;-71
2021/06/06 01:48:00;;;;;;;43.98;21.95;;;;;;;13.66;100.00;99748.98;1592042;90;21155;-71
2021/06/06 01:50:31;;;;;;;58.35;27.87;;;;;;;13.67;100.00;99746.60;1570906;91;21112;-71
2021/06/06 01:52:59;;;;;;;61.68;31.93;;;;;;;13.68;100.00;99753.70;1592049;90;21089;-71
2021/06/06 01:55:31;;;;;;;69.35;34.10;;;;;;;13.69;100.00;99751.31;1591780;90;21081;-71
2021/06/06 01:58:04;;;;;;;67.15;33.33;;;;;;;13.71;100.00;99745.69;1591174;90;21686;-72
2021/06/06 02:00:43;;;;;;;67.12;34.13;;;;;;;13.72;100.00;99745.98;1562404;92;21050;-71
2021/06/06 02:03:12;;;;;;;60.15;31.20;;;;;;;13.72;100.00;99746.81;1566111;91;21078;-72
2021/06/06 02:05:40;;;;;;;59.18;28.92;;;;;;;13.74;100.00;99754.77;1570767;90;21154;-72
2021/06/06 02:08:12;;;;;;;63.65;30.08;;;;;;;13.77;100.00;99750.31;1570709;91;21150;-71
2021/06/06 02:10:50;;;;;;;56.45;29.50;;;;;;;13.79;100.00;99746.38;1591226;90;21093;-72
2021/06/06 02:13:28;;;;;;;54.40;29.18;;;;;;;13.83;100.00;99750.89;1570453;91;21086;-71
2021/06/06 02:16:00;;;;;;;55.40;26.45;;;;;;;13.86;100.00;99749.10;1629867;88;21730;-72
2021/06/06 02:18:30;;;;;;;47.95;24.85;;;;;;;13.91;100.00;99754.78;1667005;85;21541;-72
2021/06/06 02:20:58;;;;;;;49.25;22.52;;;;;;;13.97;100.00;99760.80;1663126;86;21073;-71
2021/06/06 02:23:28;;;;;;;41.48;20.68;;;;;;;14.02;100.00;99750.66;1640804;86;21045;-71
2021/06/06 02:26:10;;;;;;;44.15;21.85;;;;;;;14.05;100.00;99756.53;1640773;86;21001;-71
2021/06/06 02:28:48;;;;;;;41.13;19.73;;;;;;;14.09;100.00;99756.14;1617632;89;21097;-71
2021/06/06 02:31:47;;;;;;;32.90;16.12;;;;;;;14.11;100.00;99754.92;1617954;89;21578;-72
2021/06/06 02:34:38;;;;;;;35.88;15.45;;;;;;;14.13;100.00;99747.89;1617726;89;21069;-71
2021/06/06 02:37:29;;;;;;;28.23;12.98;;;;;;;14.15;100.00;99748.03;1618195;89;21050;-71
2021/06/06 02:40:05;;;;;;;28.00;12.03;;;;;;;14.18;100.00;99748.99;1616519;89;21046;-70
2021/06/06 02:42:37;;;;;;;22.75;11.12;;;;;;;14.21;100.00;99747.73;1618278;89;21037;-71
2021/06/06 02:45:15;;;;;;;25.32;11.18;;;;;;;14.23;100.00;99746.48;1617937;89;21153;-71
2021/06/06 02:47:44;;;;;;;22.98;9.33;;;;;;;14.26;100.00;99740.34;1618359;89;21018;-72
2021/06/06 02:50:24;;;;;;;22.07;9.60;;;;;;;14.30;100.00;99737.00;1580037;91;21065;-71
2021/06/06 02:53:08;;;;;;;24.35;8.88;;;;;;;14.36;100.00;99736.70;1583251;91;21086;-71
2021/06/06 02:55:43;;;;;;;19.15;8.88;;;;;;;14.41;100.00;99742.37;1583251;90;21067;-71
2021/06/06 02:58:23;;;;;;;17.57;8.60;;;;;;;14.45;100.00;99738.22;1568253;91;21111;-70
2021/06/06 03:01:02;;;;;;;19.27;8.65;;;;;;;14.50;100.00;99732.16;1587859;90;21650;-72
2021/06/06 03:03:32;;;;;;;17.62;8.28;;;;;;;14.55;100.00;99737.29;1572489;91;21620;-71
2021/06/06 03:06:04;;;;;;;21.00;7.90;;;;;;;14.60;100.00;99736.19;1545177;93;21089;-71
2021/06/06 03:08:31;;;;;;;18.20;8.63;;;;;;;14.66;100.00;99723.67;1548146;93;21623;-71
2021/06/06 03:11:04;;;;;;;18.45;8.30;;;;;;;14.70;100.00;99730.91;1513993;94;21112;-71
2021/06/06 03:13:35;;;;;;;18.35;7.75;;;;;;;14.73;100.00;99727.25;1548108;93;21041;-71
2021/06/06 03:16:05;;;;;;;17.23;7.55;;;;;;;14.78;100.00;99721.17;1547971;93;21061;-70
2021/06/06 03:18:37;;;;;;;19.85;6.97;;;;;;;14.83;100.00;99721.92;1502263;94;21136;-72
2021/06/06 03:21:19;;;;;;;17.30;6.80;;;;;;;14.83;100.00;99721.39;1490053;96;21122;-71
2021/06/06 03:24:00;;;;;;;17.12;6.40;;;;;;;14.81;100.00;99720.23;1513140;95;21118;-71
2021/06/06 03:26:28;;;;;;;14.10;6.58;;;;;;;14.84;100.00;99720.36;1513213;95;21186;-72
2021/06/06 03:28:57;;;;;;;14.65;6.25;;;;;;;14.87;100.00;99722.64;1512879;95;21610;-71
2021/06/06 03:31:32;;;;;;;13.05;5.72;;;;;;;14.88;100.00;99720.25;1513006;95;21509;-71
2021/06/06 03:34:01;;;;;;;13.72;6.62;;;;;;;14.89;100.00;99718.36;1561079;92;21550;-72
2021/06/06 03:36:34;;;;;;;15.40;5.87;;;;;;;14.88;100.00;99724.87;1557844;92;21126;-72
2021/06/06 03:39:03;;;;;;;12.68;5.65;;;;;;;14.86;100.00;99724.23;1536875;93;21072;-72
2021/06/06 03:41:32;;;;;;;14.30;6.05;;;;;;;14.88;100.00;99721.61;1536990;93;21090;-70
2021/06/06 03:43:59;;;;;;;10.88;5.80;;;;;;;14.89;100.00;99715.63;1536899;93;21006;-71
2021/06/06 03:46:26;;;;;;;13.62;6.28;;;;;;;14.87;100.00;99715.01;1536928;93;21055;-70
2021/06/06 03:48:55;;;;;;;18.02;7.00;;;;;;;14.84;100.00;99717.64;1536908;93;21043;-71
2021/06/06 03:51:23;;;;;;;12.95;6.10;;;;;;;14.81;100.00;99714.78;1537010;93;21038;-71
2021/06/06 03:53:51;;;;;;;13.18;6.20;;;;;;;14.82;100.00;99710.20;1536753;93;21115;-72
2021/06/06 03:56:19;;;;;;;14.07;6.45;;;;;;;14.84;100.00;99709.47;1537578;92;21114;-72
2021/06/06 03:58:46;;;;;;;15.30;6.03;;;;;;;14.88;100.00;99706.64;1567390;91;21084;-72
2021/06/06 04:01:14;;;;;;;12.13;5.75;;;;;;;14.94;100.00;99712.63;1565455;91;21061;-72
2021/06/06 04:03:42;;;;;;;13.53;5.90;;;;;;;15.00;100.00;99704.15;1611915;89;21088;-72
2021/06/06 04:06:10;;;;;;;14.75;5.70;;;;;;;15.11;100.00;99706.23;1617680;89;21025;-71
2021/06/06 04:08:39;;;;;;;10.65;4.90;;;;;;;15.25;100.00;99707.08;1617791;89;21045;-72
2021/06/06 04:11:07;;;;;;;12.75;5.95;;;;;;;15.40;100.00;99700.05;1617940;89;21120;-72
2021/06/06 04:13:36;;;;;;;9.30;5.45;;;;;;;15.59;100.00;99700.25;1595709;89;21534;-71
2021/06/06 04:16:05;;;;;;;12.73;5.92;;;;;;;15.78;100.00;99693.95;1617603;89;21468;-72
2021/06/06 04:18:34;;;;;;;15.58;5.58;;;;;;;16.03;100.00;99691.89;1617714;87;21093;-71
2021/06/06 04:21:06;;;;;;;14.85;6.10;;;;;;;16.29;100.00;99690.41;1615790;89;21591;-71
2021/06/06 04:23:34;;;;;;;13.00;5.08;;;;;;;16.85;100.00;99682.02;1570176;91;21119;-71
2021/06/06 04:26:02;;;;;;;8.30;4.72;;;;;;;16.85;100.00;99682.02;1570241;91;21039;-71
2021/06/06 04:28:30;;;;;;;11.73;4.83;;;;;;;17.12;100.00;99673.61;1570261;91;21161;-71
2021/06/06 04:30:59;;;;;;;16.07;5.08;;;;;;;17.37;100.00;99670.03;1570518;91;21652;-71
2021/06/06 04:33:27;;;;;;;13.98;5.00;;;;;;;17.55;100.00;99663.25;1570191;91;21094;-72
2021/06/06 04:35:56;;;;;;;16.32;5.22;;;;;;;17.68;100.00;99663.63;1542103;93;21612;-71
2021/06/06 04:38:25;;;;;;;10.53;4.95;;;;;;;17.83;100.00;99659.17;1541927;93;21166;-71
2021/06/06 04:40:56;;;;;;;12.33;5.65;;;;;;;17.96;100.00;99659.03;1577297;91;21082;-72
2021/06/06 04:43:23;;;;;;;10.78;5.12;;;;;;;18.05;100.00;99661.47;1577252;91;21086;-71
2021/06/06 04:45:51;;;;;;;13.18;5.30;;;;;;;18.16;100.00;99656.58;1577356;91;21074;-71
2021/06/06 04:48:33;;;;;;;14.45;5.42;;;;;;;18.32;100.00;99656.48;1577188;90;21058;-71
2021/06/06 04:51:03;;;;;;;9.73;4.85;;;;;;;18.45;100.00;99658.19;1577494;91;21111;-71
2021/06/06 04:53:33;;;;;;;12.63;5.40;;;;;;;18.54;100.00;99648.61;1577940;91;21038;-71
2021/06/06 04:56:02;;;;;;;11.75;5.35;;;;;;;18.70;100.00;99648.48;1577463;91;21087;-73
2021/06/06 04:58:32;;;;;;;11.60;4.90;;;;;;;18.77;100.00;99642.36;1582464;91;21125;-72
2021/06/06 05:01:01;;;;;;;12.75;4.70;;;;;;;18.89;100.00;99647.36;1582818;89;21073;-71
2021/06/06 05:03:28;;;;;;;10.48;4.72;;;;;;;19.01;100.00;99646.53;1582518;91;21646;-72
2021/06/06 05:05:56;;;;;;;11.97;4.47;;;;;;;19.21;100.00;99648.41;1582701;91;21037;-71
2021/06/06 05:08:25;;;;;;;12.18;5.17;;;;;;;19.44;100.00;99644.84;1582342;91;21074;-72
2021/06/06 05:10:53;;;;;;;15.40;6.00;;;;;;;19.59;100.00;99642.97;1582599;91;21061;-70
2021/06/06 05:13:21;;;;;;;18.65;7.28;;;;;;;19.61;100.00;99633.14;1582374;91;21114;-72
2021/06/06 05:15:50;;;;;;;19.70;8.48;;;;;;;19.56;100.00;99638.50;1581667;91;21101;-70
2021/06/06 05:18:19;;;;;;;18.07;7.60;;;;;;;19.46;100.00;99637.72;1573063;91;21604;-70
2021/06/06 05:20:50;;;;;;;17.60;7.33;;;;;;;19.40;100.00;99635.95;1623219;87;21053;-71
2021/06/06 05:23:20;;;;;;;19.60;9.83;;;;;;;19.45;100.00;99642.92;1669097;86;21053;-70
2021/06/06 05:25:47;;;;;;;12.25;6.17;;;;;;;19.52;100.00;99641.72;1672945;86;21022;-70
2021/06/06 05:28:19;;;;;;;11.83;5.50;;;;;;;19.64;100.00;99642.27;1704670;84;21041;-71
2021/06/06 05:30:46;;;;;;;12.37;5.50;;;;;;;19.84;100.00;99642.72;1704185;84;20994;-70
2021/06/06 05:33:12;;;;;;;15.53;6.00;;;;;;;20.06;100.00;99633.31;1704323;84;21011;-71
2021/06/06 05:35:40;;;;;;;17.35;6.65;;;;;;;20.22;100.00;99628.96;1704080;84;21030;-71
2021/06/06 05:38:09;;;;;;;14.45;6.22;;;;;;;20.42;100.00;99632.63;1703872;84;21034;-70
2021/06/06 05:40:36;;;;;;;17.37;7.42;;;;;;;20.66;100.00;99639.39;1704364;84;21035;-71
2021/06/06 05:43:05;;;;;;;16.62;7.15;;;;;;;20.86;100.00;99638.39;1704116;84;21567;-72
2021/06/06 05:45:35;;;;;;;13.13;6.15;;;;;;;21.08;100.00;99634.07;1704202;84;21089;-72
2021/06/06 05:48:06;;;;;;;12.28;4.58;;;;;;;21.20;100.00;99635.64;1704190;84;21061;-71
2021/06/06 05:50:38;;;;;;;12.63;4.90;;;;;;;21.20;100.00;99633.44;1704099;84;21014;-72
2021/06/06 05:53:12;;;;;;;15.70;5.58;;;;;;;21.22;100.00;99627.97;1704271;84;21030;-71
2021/06/06 05:55:38;;;;;;;10.68;5.20;;;;;;;21.31;100.00;99633.05;1704358;84;21613;-71
2021/06/06 05:58:05;;;;;;;11.60;4.10;;;;;;;21.46;100.00;99629.72;1674585;84;21378;-73
2021/06/06 06:00:36;;;;;;;8.28;4.20;;;;;;;21.55;100.00;99629.05;1668569;86;21078;-71
2021/06/06 06:03:06;;;;;;;10.15;4.50;;;;;;;21.70;100.00;99619.34;1646731;87;21012;-71
2021/06/06 06:05:35;;;;;;;17.02;4.83;;;;;;;21.91;100.00;99625.94;1647064;87;21555;-72
2021/06/06 06:08:28;;;;;;;12.00;4.62;;;;;;;22.10;100.00;99619.02;1646692;87;21061;-71
2021/06/06 06:10:58;;;;;;;11.45;4.90;;;;;;;22.25;100.00;99612.02;1642933;87;21076;-71
2021/06/06 06:13:28;;;;;;;12.95;5.30;;;;;;;22.39;100.00;99616.61;1646945;87;21077;-72
2021/06/06 06:15:56;;;;;;;14.28;5.28;;;;;;;22.29;100.00;99613.19;1643246;87;21057;-72
2021/06/06 06:18:26;;;;;;;15.58;5.87;;;;;;;22.16;100.00;99610.27;1620854;89;21032;-72
2021/06/06 06:20:55;;;;;;;14.70;6.17;;;;;;;22.09;100.00;99613.77;1631653;88;21068;-71
2021/06/06 06:23:21;;;;;;;9.10;3.62;;;;;;;22.04;100.00;99615.08;1633634;88;21048;-72
2021/06/06 06:25:49;;;;;;;7.92;3.58;;;;;;;22.06;100.00;99614.27;1633563;88;21019;-72
2021/06/06 06:28:16;;;;;;;9.30;3.45;;;;;;;22.12;100.00;99611.88;1619912;87;21078;-72
2021/06/06 06:30:47;;;;;;;8.85;3.55;;;;;;;22.21;100.00;99608.12;1566793;92;21151;-71
2021/06/06 06:33:16;;;;;;;10.48;3.30;;;;;;;22.35;100.00;99604.73;1563816;92;21116;-72
2021/06/06 06:35:43;;;;;;;6.22;3.05;;;;;;;22.63;100.00;99611.59;1571313;91;21054;-72
2021/06/06 06:38:10;;;;;;;7.10;2.60;;;;;;;22.88;100.00;99603.56;1571407;91;21086;-71
2021/06/06 06:40:38;;;;;;;4.83;2.60;;;;;;;22.92;100.00;99606.63;1573159;91;20983;-71
2021/06/06 06:43:05;;;;;;;4.97;2.80;;;;;;;22.82;100.00;99606.53;1572292;91;21086;-72
2021/06/06 06:45:37;;;;;;;7.22;2.87;;;;;;;22.74;100.00;99606.48;1570808;91;21066;-72
2021/06/06 06:48:09;;;;;;;8.35;3.00;;;;;;;22.71;100.00;99605.06;1570422;91;21238;-71
2021/06/06 06:50:37;;;;;;;9.23;3.30;;;;;;;22.74;100.00;99604.55;1570826;91;21552;-70
2021/06/06 06:53:06;;;;;;;8.45;3.00;;;;;;;22.86;100.00;99602.16;1570710;91;21119;-71
2021/06/06 06:55:33;;;;;;;10.55;3.10;;;;;;;22.87;100.00;99602.45;1570908;91;21051;-71
2021/06/06 06:58:00;;;;;;;4.70;2.83;;;;;;;22.70;100.00;99605.32;1571153;90;21567;-72
2021/06/06 07:00:31;;;;;;;8.73;3.10;;;;;;;22.47;100.00;99608.71;1549502;91;21070;-71
2021/06/06 07:02:57;;;;;;;6.08;3.17;;;;;;;22.17;100.00;99611.95;1517512;94;21109;-71
2021/06/06 07:05:24;;;;;;;4.40;2.62;;;;;;;22.09;100.00;99609.64;1543598;93;21053;-70
2021/06/06 07:07:52;;;;;;;6.85;3.08;;;;;;;22.22;100.00;99618.03;1555409;89;21070;-70
2021/06/06 07:10:23;;;;;;;8.05;3.10;;;;;;;22.62;100.00;99606.64;1642882;87;21071;-71
2021/06/06 07:12:50;;;;;;;9.23;3.30;;;;;;;23.02;100.00;99618.27;1643327;87;21609;-69
2021/06/06 07:15:19;;;;;;;10.50;4.12;;;;;;;23.17;100.00;99615.67;1643011;87;21056;-69
2021/06/06 07:17:46;;;;;;;12.23;5.42;;;;;;;23.20;100.00;99607.43;1643004;87;21056;-71
2021/06/06 07:20:16;;;;;;;10.23;4.65;;;;;;;22.98;100.00;99604.73;1650334;86;21074;-70
2021/06/06 07:22:44;;;;;;;11.53;3.22;;;;;;;22.91;100.00;99609.94;1657897;87;21200;-70
2021/06/06 07:25:14;;;;;;;10.48;3.62;;;;;;;23.27;100.00;99617.12;1657833;87;21015;-72
2021/06/06 07:27:44;;;;;;;10.63;3.33;;;;;;;23.58;100.00;99606.27;1657914;87;21062;-70
2021/06/06 07:30:18;;;;;;;7.67;3.17;;;;;;;23.75;100.00;99610.79;1657989;87;21030;-71
2021/06/06 07:32:45;;;;;;;11.63;3.35;;;;;;;23.93;100.00;99605.37;1657975;87;21081;-69
2021/06/06 07:35:14;;;;;;;8.75;3.15;;;;;;;24.16;100.00;99606.83;1658361;87;21022;-69
2021/06/06 07:37:43;;;;;;;7.53;3.05;;;;;;;24.40;100.00;99603.86;1657669;87;21505;-70
2021/06/06 07:40:12;;;;;;;9.85;3.05;;;;;;;24.59;100.00;99604.17;1658079;87;21014;-71
2021/06/06 07:42:39;;;;;;;6.33;3.20;;;;;;;24.73;100.00;99603.09;1657977;87;21502;-70
2021/06/06 07:45:08;;;;;;;6.08;3.02;;;;;;;24.50;100.00;99609.94;1657925;87;21019;-69
2021/06/06 07:47:35;;;;;;;4.40;2.62;;;;;;;24.34;100.00;99600.79;1658102;87;21105;-71
2021/06/06 07:50:03;;;;;;;10.28;2.62;;;;;;;24.24;100.00;99607.14;1658183;87;20990;-69
2021/06/06 07:52:35;;;;;;;5.45;2.80;;;;;;;24.21;100.00;99600.77;1658086;87;21030;-71
2021/06/06 07:54:59;;;;;;;6.33;2.77;;;;;;;24.28;100.00;99599.13;1661458;85;21074;-69
2021/06/06 07:57:27;;;;;;;8.88;2.95;;;;;;;24.12;100.00;99602.97;1684189;84;21085;-69
2021/06/06 07:59:54;;;;;;;4.97;2.80;;;;;;;23.89;100.00;99609.22;1704723;84;21045;-71
2021/06/06 08:02:20;;;;;;;8.58;3.10;;;;;;;23.93;100.00;99606.75;1704403;84;21518;-69
2021/06/06 08:04:49;;;;;;;5.20;2.72;;;;;;;24.02;100.00;99607.89;1704523;84;21063;-69
2021/06/06 08:07:17;;;;;;;9.38;3.52;;;;;;;24.02;100.00;99607.33;1704523;84;21046;-70
2021/06/06 08:09:45;;;;;;;8.75;3.35;;;;;;;24.03;100.00;99609.00;1704525;84;21053;-69
2021/06/06 08:12:12;;;;;;;6.20;3.12;;;;;;;24.01;100.00;99611.20;1704540;84;21013;-70
2021/06/06 08:14:40;;;;;;;6.12;3.08;;;;;;;24.25;100.00;99600.48;1704617;84;21050;-71
2021/06/06 08:17:08;;;;;;;9.18;3.33;;;;;;;24.53;100.00;99605.81;1674309;84;21027;-69
2021/06/06 08:19:35;;;;;;;9.70;3.60;;;;;;;24.80;100.00;99611.94;1659263;85;21006;-70
2021/06/06 08:22:02;;;;;;;11.03;3.92;;;;;;;24.93;100.00;99606.95;1637879;87;21515;-69
2021/06/06 08:24:30;;;;;;;13.00;5.25;;;;;;;24.65;100.00;99599.50;1670462;86;21500;-70
2021/06/06 08:26:58;;;;;;;20.32;6.15;;;;;;;24.34;100.00;99601.35;1670553;86;21037;-71
2021/06/06 08:29:25;;;;;;;17.85;7.53;;;;;;;24.26;100.00;99608.25;1638079;88;21542;-71
2021/06/06 08:31:52;;;;;;;19.98;7.83;;;;;;;24.31;100.00;99608.27;1670282;86;21054;-69
2021/06/06 08:34:21;;;;;;;19.07;8.48;;;;;;;24.40;100.00;99605.23;1670590;86;21523;-69
2021/06/06 08:36:48;;;;;;;19.37;9.08;;;;;;;24.41;100.00;99597.77;1670462;86;21857;-71
2021/06/06 08:39:19;;;;;;;23.87;8.93;;;;;;;24.32;100.00;99604.38;1670480;86;20986;-71
2021/06/06 08:42:00;;;;;;;21.95;9.65;;;;;;;24.33;100.00;99602.44;1670236;86;21585;-70
2021/06/06 08:44:40;;;;;;;24.00;10.00;;;;;;;24.25;100.00;99603.81;1651217;86;21010;-68
2021/06/06 08:47:13;;;;;;;28.12;11.55;;;;;;;24.03;100.00;99604.03;1641920;86;21531;-69
2021/06/06 08:49:50;;;;;;;24.15;10.90;;;;;;;23.82;100.00;99600.36;1641635;87;21073;-70
2021/06/06 08:53:00;;;;;;;25.50;11.20;;;;;;;23.73;100.00;99608.30;1641889;87;21062;-69
2021/06/06 08:55:35;;;;;;;23.32;11.12;;;;;;;23.55;100.00;99606.83;1641860;87;21053;-70
2021/06/06 08:58:36;;;;;;;21.30;10.28;;;;;;;23.72;100.00;99607.17;1641179;87;21459;-69
2021/06/06 09:01:17;;;;;;;20.75;10.50;;;;;;;24.09;100.00;99607.08;1610876;89;21084;-68
2021/06/06 09:03:44;;;;;;;24.60;11.63;;;;;;;24.51;100.00;99601.94;1637091;87;21068;-69
2021/06/06 09:06:30;;;;;;;21.30;11.12;;;;;;;24.68;100.00;99602.26;1611751;89;21075;-69
2021/06/06 09:08:59;;;;;;;21.20;10.65;;;;;;;24.59;100.00;99601.41;1641004;87;21049;-70
2021/06/06 09:11:27;;;;;;;25.68;10.38;;;;;;;24.59;100.00;99597.83;1611722;89;21566;-70
2021/06/06 09:13:56;;;;;;;17.48;8.95;;;;;;;24.74;100.00;99603.38;1619459;87;21077;-69
2021/06/06 09:16:31;;;;;;;17.75;9.53;;;;;;;24.74;100.00;99603.38;1641032;87;21042;-69
2021/06/06 09:19:12;;;;;;;19.65;8.38;;;;;;;24.56;100.00;99599.75;1607162;89;21165;-69
2021/06/06 09:21:59;;;;;;;21.68;8.10;;;;;;;24.29;100.00;99606.86;1619740;88;21018;-70
2021/06/06 09:27:23;;;;;;;17.07;7.15;;;;;;;24.53;100.00;99605.81;1524228;91;21084;-69
2021/06/06 09:30:13;;;;;;;15.13;5.80;;;;;;;24.83;100.00;99611.95;1524090;94;21615;-69
2021/06/06 09:32:41;;;;;;;17.60;5.72;;;;;;;25.04;100.00;99612.78;1524332;94;21072;-70
2021/06/06 09:35:33;;;;;;;12.47;5.33;;;;;;;25.01;100.00;99607.80;1531692;94;21100;-69
2021/06/06 09:38:22;;;;;;;13.37;5.63;;;;;;;24.86;100.00;99606.41;1514339;94;21578;-69
2021/06/06 09:40:50;;;;;;;15.03;6.20;;;;;;;24.62;100.00;99606.95;1441868;100;21337;-70
2021/06/06 09:43:31;;;;;;;17.10;6.80;;;;;;;24.55;100.00;99609.98;1433104;100;21329;-69
2021/06/06 09:46:15;;;;;;;19.82;8.05;;;;;;;24.79;100.00;99603.94;1405197;102;21239;-70
2021/06/06 09:48:43;;;;;;;20.77;8.35;;;;;;;25.22;100.00;99611.94;1403484;102;21095;-69
2021/06/06 09:51:29;;;;;;;17.27;6.72;;;;;;;25.06;100.00;99598.68;1403564;102;21132;-69
2021/06/06 09:54:13;;;;;;;13.65;5.20;;;;;;;24.82;100.00;99597.84;1403590;102;21179;-71
2021/06/06 09:56:41;;;;;;;14.63;5.75;;;;;;;24.73;100.00;99592.03;1384231;102;21189;-70
2021/06/06 09:59:18;;;;;;;18.12;7.47;;;;;;;25.07;100.00;99604.47;1370246;105;21181;-69
2021/06/06 10:02:13;;;;;;;16.45;7.83;;;;;;;25.13;100.00;99593.69;1369690;105;21728;-69
2021/06/06 10:04:44;;;;;;;22.37;9.25;;;;;;;24.97;100.00;99593.70;1369915;105;21725;-70
2021/06/06 10:07:29;;;;;;;18.30;8.63;;;;;;;24.86;100.00;99598.11;1370371;105;21115;-70
2021/06/06 10:09:57;;;;;;;19.73;6.70;;;;;;;24.69;100.00;99593.69;1353905;106;21179;-69
2021/06/06 10:12:31;;;;;;;22.42;6.75;;;;;;;24.79;100.00;99591.50;1355984;106;21139;-69
2021/06/06 10:15:07;;;;;;;17.42;7.30;;;;;;;25.16;100.00;99587.58;1352852;106;21120;-70
2021/06/06 10:17:53;;;;;;;21.82;8.33;;;;;;;25.69;100.00;99582.52;1336465;106;21272;-70
2021/06/06 10:20:30;;;;;;;17.35;8.23;;;;;;;25.99;100.00;99577.15;1351421;105;21652;-70
2021/06/06 10:23:17;;;;;;;21.62;9.55;;;;;;;26.04;100.00;99582.66;1373697;103;21649;-69
2021/06/06 10:26:09;;;;;;;18.10;8.95;;;;;;;26.05;100.00;99587.10;1355064;106;21233;-69
2021/06/06 10:28:41;;;;;;;19.73;8.85;;;;;;;25.97;100.00;99576.61;1371852;105;21156;-69
2021/06/06 10:31:13;;;;;;;19.02;7.45;;;;;;;25.78;100.00;99585.50;1371474;105;21054;-69
2021/06/06 10:33:50;;;;;;;12.60;6.37;;;;;;;25.57;100.00;99585.59;1379802;103;21165;-70
2021/06/06 10:36:21;;;;;;;14.30;6.90;;;;;;;25.43;100.00;99581.77;1407939;102;21207;-69
2021/06/06 10:38:47;;;;;;;12.95;6.58;;;;;;;25.56;100.00;99578.39;1444020;99;21121;-72
2021/06/06 10:41:34;;;;;;;13.20;5.83;;;;;;;25.65;100.00;99569.52;1445606;99;21610;-70
2021/06/06 10:44:13;;;;;;;15.93;6.78;;;;;;;25.53;100.00;99578.12;1473524;97;21107;-69
2021/06/06 10:47:11;;;;;;;16.77;6.65;;;;;;;25.55;100.00;99573.13;1449569;99;21214;-69
2021/06/06 10:49:58;;;;;;;11.15;6.00;;;;;;;25.52;100.00;99579.25;1449301;98;21089;-70
2021/06/06 10:52:32;;;;;;;11.20;5.12;;;;;;;25.41;100.00;99576.22;1448204;96;21619;-70
2021/06/06 10:55:28;;;;;;;10.68;4.50;;;;;;;25.71;100.00;99570.60;1423766;101;21711;-69
2021/06/06 10:57:55;;;;;;;14.10;5.72;;;;;;;25.88;100.00;99570.80;1448141;99;21189;-70
2021/06/06 11:00:41;;;;;;;18.20;6.72;;;;;;;25.71;100.00;99568.37;1473805;97;21144;-69
2021/06/06 11:03:24;;;;;;;12.10;5.97;;;;;;;25.47;100.00;99574.55;1473741;97;21073;-70
2021/06/06 11:06:00;;;;;;;16.70;5.65;;;;;;;25.41;100.00;99563.77;1444278;97;21181;-69
2021/06/06 11:08:37;;;;;;;10.90;4.25;;;;;;;25.70;100.00;99563.95;1430191;100;21118;-70
2021/06/06 11:11:26;;;;;;;10.55;6.10;;;;;;;26.02;100.00;99553.86;1430028;100;21162;-70
2021/06/06 11:14:02;;;;;;;18.30;8.03;;;;;;;26.20;100.00;99555.14;1430207;100;21165;-70
2021/06/06 11:16:44;;;;;;;14.80;6.60;;;;;;;25.99;100.00;99558.58;1429167;100;21108;-69
2021/06/06 11:19:20;;;;;;;12.98;5.90;;;;;;;25.94;100.00;99557.22;1441308;98;21168;-71
2021/06/06 11:21:56;;;;;;;11.83;5.67;;;;;;;26.19;100.00;99556.27;1498776;93;21106;-71
2021/06/06 11:24:44;;;;;;;12.60;4.50;;;;;;;26.37;100.00;99568.62;1539610;93;21623;-69
2021/06/06 11:27:22;;;;;;;13.10;5.58;;;;;;;26.39;100.00;99565.00;1539327;93;21109;-71
2021/06/06 11:30:24;;;;;;;14.78;6.40;;;;;;;26.50;100.00;99564.36;1539396;93;21567;-69
2021/06/06 11:33:07;;;;;;;16.97;6.58;;;;;;;26.52;100.00;99567.13;1540870;93;21077;-69
2021/06/06 11:35:41;;;;;;;20.85;7.08;;;;;;;26.44;100.00;99563.58;1542123;93;21136;-70
2021/06/06 11:38:21;;;;;;;11.55;4.37;;;;;;;26.43;100.00;99569.41;1541859;89;21132;-71
2021/06/06 11:40:50;;;;;;;11.83;3.62;;;;;;;26.13;100.00;99562.41;1539339;93;21041;-69
2021/06/06 11:43:28;;;;;;;7.30;3.62;;;;;;;25.93;100.00;99566.09;1547051;91;21113;-70
2021/06/06 11:46:04;;;;;;;12.80;4.10;;;;;;;25.94;100.00;99576.61;1575699;91;21037;-71